Alpine Moment — VREV7 — position and weather

sailwx.info

Track history (hours):
 
Tides and Currents Weather Stations Pressure Air Temp Water Temp Dewpoint Dewpoint Depression Visibility Wind Speed Wind Dir Waves Ship Positions

Alpine Moment

Last reported at 2015-Jan-28 13:33 UTC. Time now 2015-Jan-28 14:16 UTC.
Position N 29°44' W 095°13'.

Length 183 m; draft 8 m.

Type: Ship (hazmat cat D). MMSI: 477185800.

Date/timePositionNaut miles runAvg speedWind from/ knotsBaromVisibWave heightAir tempDewpointWater temp
2015-Jan-28 13:33N 29°44' W 095°13'0 0.0
2015-Jan-28 12:33N 29°44' W 095°13'0 0.0
2015-Jan-28 11:32N 29°44' W 095°13'0 0.0
2015-Jan-28 10:32N 29°44' W 095°13'0 0.0
2015-Jan-28 09:29N 29°44' W 095°13'0 0.0
2015-Jan-28 08:32N 29°44' W 095°13'0 0.0
2015-Jan-28 07:33N 29°44' W 095°13'0 0.0
2015-Jan-28 06:32N 29°44' W 095°13'0 0.0
2015-Jan-28 05:32N 29°44' W 095°13'0 0.0
2015-Jan-28 04:32N 29°44' W 095°13'0 0.0
2015-Jan-28 03:29N 29°44' W 095°13'0 0.0
2015-Jan-28 02:32N 29°44' W 095°13'0 0.0
2015-Jan-28 01:32N 29°44' W 095°13'0 0.0
2015-Jan-28 00:32N 29°44' W 095°13'0 0.0
2015-Jan-27 23:32N 29°44' W 095°13'0 0.0
2015-Jan-27 22:32N 29°44' W 095°13'0 0.0
2015-Jan-27 21:29N 29°44' W 095°13'0 0.0
2015-Jan-27 20:32N 29°44' W 095°13'0 0.0
2015-Jan-27 19:32N 29°44' W 095°13'0 0.0
2015-Jan-27 18:32N 29°44' W 095°13'0 0.0
2015-Jan-27 17:32N 29°44' W 095°13'0 0.0
2015-Jan-27 16:32N 29°44' W 095°13'0 0.0
2015-Jan-27 15:32N 29°44' W 095°13'0 0.0
2015-Jan-27 14:32N 29°44' W 095°13'0 0.0
2015-Jan-27 04:32N 29°44' W 095°13'0 0.0
2015-Jan-27 03:32N 29°44' W 095°13'0 0.0
2015-Jan-27 02:32N 29°44' W 095°13'0 0.0
2015-Jan-27 01:32N 29°44' W 095°13'0 0.0
2015-Jan-27 00:32N 29°44' W 095°13'0 0.0
2015-Jan-26 23:32N 29°44' W 095°13'0 0.0
2015-Jan-26 22:32N 29°44' W 095°13'0 0.0
2015-Jan-26 21:32N 29°44' W 095°13'0 0.0
2015-Jan-26 20:32N 29°44' W 095°13'1 0.7
2015-Jan-26 19:33N 29°43' W 095°14'5 5.4
2015-Jan-26 18:33N 29°44' W 095°08'6 5.8
2015-Jan-26 17:33N 29°43' W 095°01'9 8.9
2015-Jan-26 16:33N 29°35' W 094°56'1110.9
2015-Jan-26 15:34N 29°26' W 094°50'16 0.6
2015-Jan-25 13:32N 29°19' W 094°33'0 0.0
2015-Jan-25 12:26N 29°19' W 094°33'0 0.0
2015-Jan-25 11:23N 29°19' W 094°33'0 0.0
2015-Jan-25 10:23N 29°19' W 094°33'0 0.0
2015-Jan-25 08:08N 29°19' W 094°33'  
2015-Jan-21 17:32N 25°55' W 079°28'1312.8
2015-Jan-21 16:33N 26°07' W 079°23'  
Track history (hours):
 
Tides and Currents Weather Stations Pressure Air Temp Water Temp Dewpoint Dewpoint Depression Visibility Wind Speed Wind Dir Waves Ship Positions

Alpine Moment

Last reported at 2015-Jan-28 13:33 UTC. Time now 2015-Jan-28 14:16 UTC.
Position N 29°44' W 095°13'.

Length 183 m; draft 8 m.

Type: Ship (hazmat cat D). MMSI: 477185800.

Date/timePositionNaut miles runAvg speedWind from/ knotsBaromVisibWave heightAir tempDewpointWater temp
2015-Jan-28 13:33N 29°44' W 095°13'0 0.0
2015-Jan-28 12:33N 29°44' W 095°13'0 0.0
2015-Jan-28 11:32N 29°44' W 095°13'0 0.0
2015-Jan-28 10:32N 29°44' W 095°13'0 0.0
2015-Jan-28 09:29N 29°44' W 095°13'0 0.0
2015-Jan-28 08:32N 29°44' W 095°13'0 0.0
2015-Jan-28 07:33N 29°44' W 095°13'0 0.0
2015-Jan-28 06:32N 29°44' W 095°13'0 0.0
2015-Jan-28 05:32N 29°44' W 095°13'0 0.0
2015-Jan-28 04:32N 29°44' W 095°13'0 0.0
2015-Jan-28 03:29N 29°44' W 095°13'0 0.0
2015-Jan-28 02:32N 29°44' W 095°13'0 0.0
2015-Jan-28 01:32N 29°44' W 095°13'0 0.0
2015-Jan-28 00:32N 29°44' W 095°13'0 0.0
2015-Jan-27 23:32N 29°44' W 095°13'0 0.0
2015-Jan-27 22:32N 29°44' W 095°13'0 0.0
2015-Jan-27 21:29N 29°44' W 095°13'0 0.0
2015-Jan-27 20:32N 29°44' W 095°13'0 0.0
2015-Jan-27 19:32N 29°44' W 095°13'0 0.0
2015-Jan-27 18:32N 29°44' W 095°13'0 0.0
2015-Jan-27 17:32N 29°44' W 095°13'0 0.0
2015-Jan-27 16:32N 29°44' W 095°13'0 0.0
2015-Jan-27 15:32N 29°44' W 095°13'0 0.0
2015-Jan-27 14:32N 29°44' W 095°13'0 0.0
2015-Jan-27 04:32N 29°44' W 095°13'0 0.0
2015-Jan-27 03:32N 29°44' W 095°13'0 0.0
2015-Jan-27 02:32N 29°44' W 095°13'0 0.0
2015-Jan-27 01:32N 29°44' W 095°13'0 0.0
2015-Jan-27 00:32N 29°44' W 095°13'0 0.0
2015-Jan-26 23:32N 29°44' W 095°13'0 0.0
2015-Jan-26 22:32N 29°44' W 095°13'0 0.0
2015-Jan-26 21:32N 29°44' W 095°13'0 0.0
2015-Jan-26 20:32N 29°44' W 095°13'1 0.7
2015-Jan-26 19:33N 29°43' W 095°14'5 5.4
2015-Jan-26 18:33N 29°44' W 095°08'6 5.8
2015-Jan-26 17:33N 29°43' W 095°01'9 8.9
2015-Jan-26 16:33N 29°35' W 094°56'1110.9
2015-Jan-26 15:34N 29°26' W 094°50'16 0.6
2015-Jan-25 13:32N 29°19' W 094°33'0 0.0
2015-Jan-25 12:26N 29°19' W 094°33'0 0.0
2015-Jan-25 11:23N 29°19' W 094°33'0 0.0
2015-Jan-25 10:23N 29°19' W 094°33'0 0.0
2015-Jan-25 08:08N 29°19' W 094°33'  
2015-Jan-21 17:32N 25°55' W 079°28'1312.8
2015-Jan-21 16:33N 26°07' W 079°23'  

Dump ship's entire track history